Amanda Park, Washington
Current Conditions -  °F | °C
As of 7:36 PM on Wednesday 22 Oct 2014 (Local Time) from KHQM Reporting Station
Overcast Overcast  
Wind Chill: 14°   Ceiling: 9000
Heat Index: 14°   Visibility: 7mi
Dew Point: 13°   Wind: 14mph
Humidity: 93%   Direction: 190°S
Pressure: 29.58"   Gusts: NA
Location:  47.46°N, 123.89°W
Report Text: KHQM 230236Z AUTO 19012KT 7SM FEW009 BKN090 OVC120 14/13 A2958 RMK AO2 T01390128
Loading
Personal Weather Stations






























Interactive Weather Map
Tropical Storm Tracking
New forecast layout! Learn more

10-Day Weather Forecast

Advertisements
Track Severe Weather on mobile